createdAt,value
2023-02-04T00:00:37.244Z,4.10
2023-02-04T00:03:05.825Z,3.73
2023-02-04T00:05:33.874Z,3.93
2023-02-04T00:08:03.984Z,3.50
2023-02-04T00:10:32.300Z,4.40
2023-02-04T00:13:00.515Z,4.10
2023-02-04T00:15:28.487Z,4.10
2023-02-04T00:17:56.567Z,3.50
2023-02-04T00:20:24.892Z,3.67
2023-02-04T00:22:52.886Z,4.13
2023-02-04T00:25:22.166Z,4.00
2023-02-04T00:27:50.118Z,3.70
2023-02-04T00:30:18.591Z,4.40
2023-02-04T00:32:46.442Z,3.90
2023-02-04T00:35:14.668Z,3.83
2023-02-04T00:37:42.646Z,4.00
2023-02-04T00:40:12.029Z,3.37
2023-02-04T00:42:41.755Z,3.93
2023-02-04T00:45:10.711Z,3.67
2023-02-04T00:47:38.628Z,3.97
2023-02-04T00:50:07.383Z,3.13
2023-02-04T00:52:35.289Z,4.13
2023-02-04T00:55:03.210Z,3.83
2023-02-04T00:57:31.208Z,3.30
2023-02-04T01:00:00.522Z,3.27
2023-02-04T01:02:28.497Z,4.17
2023-02-04T01:04:56.440Z,3.97
2023-02-04T01:07:24.718Z,4.30
2023-02-04T01:09:52.649Z,4.07
2023-02-04T01:12:22.825Z,3.70
2023-02-04T01:14:50.904Z,3.43
2023-02-04T01:17:21.137Z,3.70
2023-02-04T01:19:49.421Z,3.20
2023-02-04T01:22:17.304Z,3.97
2023-02-04T01:24:45.208Z,4.20
2023-02-04T01:27:13.245Z,3.53
2023-02-04T01:29:41.160Z,4.03
2023-02-04T01:32:09.047Z,4.60
2023-02-04T01:34:38.331Z,3.80
2023-02-04T01:37:06.715Z,4.80
2023-02-04T01:39:34.945Z,4.00
2023-02-04T01:42:02.941Z,3.60
2023-02-04T01:44:31.345Z,4.23
2023-02-04T01:46:59.447Z,4.30
2023-02-04T01:49:27.709Z,3.40
2023-02-04T01:51:57.167Z,4.03
2023-02-04T01:54:26.415Z,4.13
2023-02-04T01:56:55.398Z,4.40
2023-02-04T01:59:24.008Z,3.87
2023-02-04T02:01:53.281Z,3.77
2023-02-04T02:04:25.341Z,3.67
2023-02-04T02:06:57.242Z,4.50
2023-02-04T02:09:25.403Z,3.80
2023-02-04T02:11:53.463Z,3.73
2023-02-04T02:14:21.463Z,3.47
2023-02-04T02:16:49.508Z,4.13
2023-02-04T02:19:26.423Z,3.63
2023-02-04T02:22:03.470Z,3.50
2023-02-04T02:24:34.202Z,4.43
2023-02-04T02:27:04.721Z,3.40
2023-02-04T02:29:32.793Z,4.07
2023-02-04T02:32:01.045Z,4.70
2023-02-04T02:34:30.286Z,3.37
2023-02-04T02:37:00.372Z,3.80
2023-02-04T02:39:28.654Z,4.20
2023-02-04T02:41:59.734Z,3.93
2023-02-04T02:44:28.075Z,3.93
2023-02-04T02:46:56.236Z,3.33
2023-02-04T02:49:24.271Z,3.37
2023-02-04T02:51:52.185Z,4.17
2023-02-04T02:54:24.169Z,3.50
2023-02-04T02:56:53.013Z,3.50
2023-02-04T02:59:22.339Z,3.50
2023-02-04T03:01:53.973Z,4.03
2023-02-04T03:04:22.758Z,4.60
2023-02-04T03:06:51.742Z,3.80
2023-02-04T03:09:20.124Z,3.97
2023-02-04T03:11:48.222Z,4.03
2023-02-04T03:14:16.580Z,3.40
2023-02-04T03:16:46.421Z,4.77
2023-02-04T03:19:14.850Z,4.93
2023-02-04T03:21:43.556Z,4.00
2023-02-04T03:24:11.554Z,3.83
2023-02-04T03:26:39.687Z,3.60
2023-02-04T03:29:09.214Z,3.70
2023-02-04T03:31:37.791Z,5.27
2023-02-04T03:34:07.291Z,3.50
2023-02-04T03:36:36.466Z,4.07
2023-02-04T03:39:04.815Z,4.10
2023-02-04T03:41:32.768Z,3.63
2023-02-04T03:44:00.755Z,3.83
2023-02-04T03:46:28.844Z,3.40
2023-02-04T03:48:56.831Z,4.10
2023-02-04T03:51:26.314Z,3.87
2023-02-04T03:53:54.180Z,3.80
2023-02-04T03:56:22.117Z,3.27
2023-02-04T03:58:50.040Z,4.23
2023-02-04T04:01:17.975Z,3.70
2023-02-04T04:03:45.880Z,3.50
2023-02-04T04:06:13.824Z,4.10
2023-02-04T04:08:43.087Z,4.20
2023-02-04T04:11:10.958Z,3.43
2023-02-04T04:13:38.849Z,4.30
2023-02-04T04:16:07.554Z,3.80
2023-02-04T04:18:35.632Z,3.93
2023-02-04T04:21:03.643Z,4.00
2023-02-04T04:23:31.520Z,3.83
2023-02-04T04:26:00.785Z,4.03
2023-02-04T04:28:28.649Z,4.27
2023-02-04T04:30:56.573Z,4.03
2023-02-04T04:33:24.527Z,3.47
2023-02-04T04:35:52.384Z,3.33
2023-02-04T04:38:20.299Z,3.93
2023-02-04T04:40:48.156Z,3.70
2023-02-04T04:43:17.451Z,4.07
2023-02-04T04:45:45.369Z,3.63
2023-02-04T04:48:13.211Z,4.27
2023-02-04T04:50:41.056Z,3.67
2023-02-04T04:53:11.303Z,3.93
2023-02-04T04:55:39.399Z,3.47
2023-02-04T04:58:08.455Z,4.03
2023-02-04T05:00:37.936Z,3.67
2023-02-04T05:03:05.902Z,3.47
2023-02-04T05:05:34.030Z,3.33
2023-02-04T05:08:01.989Z,3.90
2023-02-04T05:10:33.078Z,3.77
2023-02-04T05:13:01.120Z,3.87
2023-02-04T05:15:29.016Z,3.93
2023-02-04T05:17:58.389Z,3.67
2023-02-04T05:20:26.518Z,3.60
2023-02-04T05:22:55.960Z,3.53
2023-02-04T05:25:24.077Z,2.93
2023-02-04T05:27:51.997Z,3.80
2023-02-04T05:30:20.032Z,3.60
2023-02-04T05:32:47.956Z,3.50
2023-02-04T05:35:17.379Z,3.23
2023-02-04T05:37:45.308Z,5.23
2023-02-04T05:40:13.986Z,4.00
2023-02-04T05:42:41.981Z,3.57
2023-02-04T05:45:15.725Z,3.73
2023-02-04T05:47:43.946Z,3.83
2023-02-04T05:50:12.383Z,3.70
2023-02-04T05:52:41.784Z,4.53
2023-02-04T05:55:12.328Z,3.73
2023-02-04T05:57:40.285Z,3.60
2023-02-04T06:00:09.403Z,3.30
2023-02-04T06:02:37.291Z,3.70
2023-02-04T06:05:05.618Z,4.27
2023-02-04T06:07:33.519Z,3.10
2023-02-04T06:10:02.732Z,3.67
2023-02-04T06:12:30.852Z,3.27
2023-02-04T06:14:58.711Z,3.40
2023-02-04T06:17:26.560Z,3.63
2023-02-04T06:19:54.501Z,3.90
2023-02-04T06:22:24.321Z,3.60
2023-02-04T06:24:52.178Z,3.53
2023-02-04T06:27:23.436Z,3.53
2023-02-04T06:29:51.796Z,3.73
2023-02-04T06:32:20.121Z,3.53
2023-02-04T06:34:48.226Z,3.50
2023-02-04T06:37:17.107Z,3.67
2023-02-04T06:39:45.036Z,3.97
2023-02-04T06:42:12.948Z,3.30
2023-02-04T06:44:42.164Z,3.90
2023-02-04T06:47:10.057Z,3.70
2023-02-04T06:49:37.897Z,3.93
2023-02-04T06:52:06.389Z,4.87
2023-02-04T06:54:34.285Z,3.47
2023-02-04T06:57:06.670Z,3.87
2023-02-04T06:59:35.220Z,4.00
2023-02-04T07:02:05.526Z,4.00
2023-02-04T07:04:33.378Z,3.50
2023-02-04T07:07:01.354Z,3.40
2023-02-04T07:09:29.249Z,3.73
2023-02-04T07:11:57.187Z,3.40
2023-02-04T07:14:25.105Z,4.07
2023-02-04T07:16:53.079Z,3.30
2023-02-04T07:19:22.281Z,3.97
2023-02-04T07:21:53.897Z,4.03
2023-02-04T07:24:21.898Z,3.70
2023-02-04T07:26:49.781Z,3.87
2023-02-04T07:29:25.188Z,4.77
2023-02-04T07:31:53.733Z,4.60
2023-02-04T07:34:23.069Z,4.97
2023-02-04T07:36:50.974Z,3.83
2023-02-04T07:39:18.909Z,4.53
2023-02-04T07:41:46.738Z,4.13
2023-02-04T07:44:14.653Z,3.87
2023-02-04T07:46:42.647Z,3.00
2023-02-04T07:49:10.690Z,4.07
2023-02-04T07:51:39.922Z,3.67
2023-02-04T07:54:07.814Z,3.90
2023-02-04T07:56:35.673Z,4.30
2023-02-04T07:59:03.538Z,3.53
2023-02-04T08:01:31.471Z,4.00
2023-02-04T08:03:59.415Z,3.67
2023-02-04T08:06:27.777Z,5.13
2023-02-04T08:08:57.047Z,4.40
2023-02-04T08:11:27.004Z,3.97
2023-02-04T08:13:54.924Z,3.77
2023-02-04T08:16:22.899Z,4.03
2023-02-04T08:18:50.871Z,4.13
2023-02-04T08:21:19.598Z,4.10
2023-02-04T08:23:47.503Z,3.50
2023-02-04T08:26:16.803Z,4.07
2023-02-04T08:28:44.727Z,3.60
2023-02-04T08:31:12.673Z,3.53
2023-02-04T08:33:41.103Z,4.30
2023-02-04T08:36:09.387Z,3.80
2023-02-04T08:38:37.287Z,3.97
2023-02-04T08:41:05.750Z,4.87
2023-02-04T08:43:34.979Z,3.73
2023-02-04T08:46:02.859Z,4.63
2023-02-04T08:48:30.856Z,3.53
2023-02-04T08:50:58.750Z,4.47
2023-02-04T08:53:26.649Z,3.57
2023-02-04T08:55:54.764Z,4.00
2023-02-04T08:58:22.628Z,3.50
2023-02-04T09:00:52.230Z,3.70
2023-02-04T09:03:20.225Z,3.53
2023-02-04T09:05:48.648Z,3.50
2023-02-04T09:08:16.828Z,3.80
2023-02-04T09:10:44.833Z,3.53
2023-02-04T09:13:14.315Z,4.40
2023-02-04T09:15:42.314Z,3.90
2023-02-04T09:18:16.428Z,3.53
2023-02-04T09:20:44.665Z,3.40
2023-02-04T09:23:13.439Z,4.50
2023-02-04T09:25:41.622Z,4.37
2023-02-04T09:28:11.596Z,3.73
2023-02-04T09:30:40.345Z,4.10
2023-02-04T09:33:09.310Z,3.70
2023-02-04T09:35:38.730Z,4.30
2023-02-04T09:38:06.761Z,4.20
2023-02-04T09:40:37.829Z,3.73
2023-02-04T09:43:07.205Z,3.60
2023-02-04T09:45:36.504Z,3.90
2023-02-04T09:48:06.313Z,3.97
2023-02-04T09:50:35.006Z,4.10
2023-02-04T09:53:07.475Z,4.17
2023-02-04T09:55:39.668Z,3.87
2023-02-04T09:58:16.097Z,4.27
2023-02-04T10:00:45.064Z,3.90
2023-02-04T10:03:17.648Z,4.20
2023-02-04T10:05:47.255Z,3.93
2023-02-04T10:08:18.409Z,4.57
2023-02-04T10:10:47.449Z,4.10
2023-02-04T10:13:20.585Z,4.30
2023-02-04T10:15:50.451Z,4.47
2023-02-04T10:18:26.304Z,4.67
2023-02-04T10:20:56.631Z,4.23
2023-02-04T10:23:25.955Z,4.60
2023-02-04T10:25:53.871Z,4.37
2023-02-04T10:28:22.342Z,3.73
2023-02-04T10:30:50.308Z,5.03
2023-02-04T10:33:24.857Z,3.90
2023-02-04T10:35:55.216Z,4.73
2023-02-04T10:38:25.288Z,4.53
2023-02-04T10:41:02.158Z,3.97
2023-02-04T10:43:30.078Z,4.83
2023-02-04T10:45:59.980Z,4.57
2023-02-04T10:48:30.175Z,4.20
2023-02-04T10:50:59.248Z,4.17
2023-02-04T10:53:45.910Z,4.87
2023-02-04T10:56:18.073Z,4.17
2023-02-04T10:58:46.336Z,4.40
2023-02-04T11:01:16.677Z,4.37
2023-02-04T11:03:48.075Z,3.83
2023-02-04T11:06:21.496Z,4.23
2023-02-04T11:08:53.515Z,3.60
2023-02-04T11:11:23.738Z,4.40
2023-02-04T11:14:02.044Z,3.70
2023-02-04T11:16:32.894Z,4.73
2023-02-04T11:19:02.718Z,4.83
2023-02-04T11:21:43.882Z,4.50
2023-02-04T11:24:26.781Z,5.07
2023-02-04T11:27:07.539Z,4.97
2023-02-04T11:29:38.644Z,4.37
2023-02-04T11:32:13.752Z,4.07
2023-02-04T11:34:51.236Z,4.30
2023-02-04T11:37:38.343Z,4.50
2023-02-04T11:40:33.127Z,4.20
2023-02-04T11:43:03.915Z,4.70
2023-02-04T11:45:35.033Z,4.33
2023-02-04T11:48:05.462Z,4.50
2023-02-04T11:50:35.571Z,3.67
2023-02-04T11:53:03.821Z,5.17
2023-02-04T11:55:36.961Z,4.03
2023-02-04T11:58:05.441Z,5.10
2023-02-04T12:00:34.429Z,4.90
2023-02-04T12:03:06.304Z,4.70
2023-02-04T12:05:40.747Z,4.97
2023-02-04T12:08:14.012Z,4.43
2023-02-04T12:10:50.140Z,4.37
2023-02-04T12:13:20.051Z,4.40
2023-02-04T12:15:58.936Z,4.47
2023-02-04T12:18:28.671Z,4.10
2023-02-04T12:20:57.364Z,5.00
2023-02-04T12:23:25.777Z,5.27
2023-02-04T12:25:55.367Z,4.90
2023-02-04T12:28:24.033Z,4.37
2023-02-04T12:30:52.268Z,4.83
2023-02-04T12:33:20.175Z,4.27
2023-02-04T12:35:48.112Z,4.13
2023-02-04T12:38:16.222Z,4.63
2023-02-04T12:40:44.632Z,4.50
2023-02-04T12:43:14.024Z,4.70
2023-02-04T12:45:45.621Z,3.73
2023-02-04T12:48:13.976Z,4.60
2023-02-04T12:50:41.979Z,4.17
2023-02-04T12:53:09.971Z,4.10
2023-02-04T12:55:38.042Z,4.27
2023-02-04T12:58:06.263Z,3.70
2023-02-04T13:00:35.646Z,3.57
2023-02-04T13:03:03.850Z,3.67
2023-02-04T13:05:32.484Z,3.47
2023-02-04T13:08:00.767Z,4.20
2023-02-04T13:10:28.892Z,4.20
2023-02-04T13:13:04.691Z,4.53
2023-02-04T13:15:35.435Z,4.00
2023-02-04T13:18:05.107Z,3.83
2023-02-04T13:20:32.997Z,3.63
2023-02-04T13:23:00.951Z,3.60
2023-02-04T13:25:28.923Z,4.17
2023-02-04T13:27:56.913Z,4.07
2023-02-04T13:30:24.935Z,3.90
2023-02-04T13:32:52.850Z,4.40
2023-02-04T13:35:22.191Z,3.90
2023-02-04T13:37:50.214Z,3.50
2023-02-04T13:40:18.450Z,4.23
2023-02-04T13:42:46.370Z,4.40
2023-02-04T13:45:16.271Z,3.60
2023-02-04T13:47:44.216Z,4.00
2023-02-04T13:50:12.138Z,3.90
2023-02-04T13:52:41.422Z,4.33
2023-02-04T13:55:09.844Z,4.73
2023-02-04T13:57:38.298Z,4.13
2023-02-04T14:00:07.294Z,3.73
2023-02-04T14:02:35.290Z,4.17
2023-02-04T14:05:03.380Z,4.40
2023-02-04T14:07:33.221Z,4.00
2023-02-04T14:10:02.668Z,4.13
2023-02-04T14:12:30.731Z,5.20
2023-02-04T14:14:58.624Z,4.80
2023-02-04T14:17:26.800Z,4.97
2023-02-04T14:19:54.737Z,4.10
2023-02-04T14:22:22.621Z,3.53
2023-02-04T14:24:50.573Z,3.70
2023-02-04T14:27:19.913Z,4.77
2023-02-04T14:29:47.948Z,4.23
2023-02-04T14:32:15.898Z,3.97
2023-02-04T14:34:43.909Z,4.10
2023-02-04T14:37:11.900Z,4.90
2023-02-04T14:39:39.878Z,4.30
2023-02-04T14:42:07.850Z,4.53
2023-02-04T14:44:37.080Z,4.10
2023-02-04T14:47:05.129Z,3.77
2023-02-04T14:49:34.851Z,4.90
2023-02-04T14:52:03.893Z,3.70
2023-02-04T14:54:31.790Z,4.90
2023-02-04T14:56:59.691Z,4.30
2023-02-04T14:59:27.639Z,4.40
2023-02-04T15:01:56.876Z,3.67
2023-02-04T15:04:24.874Z,3.60
2023-02-04T15:06:53.946Z,4.17
2023-02-04T15:09:21.942Z,4.17
2023-02-04T15:11:49.839Z,4.00
2023-02-04T15:14:17.834Z,4.40
2023-02-04T15:16:48.408Z,4.40
2023-02-04T15:19:18.876Z,3.73
2023-02-04T15:21:46.999Z,3.63
2023-02-04T15:24:14.943Z,3.27
2023-02-04T15:26:42.928Z,3.67
2023-02-04T15:29:11.163Z,3.63
2023-02-04T15:31:39.244Z,3.67
2023-02-04T15:34:07.266Z,4.33
2023-02-04T15:36:36.682Z,4.13
2023-02-04T15:39:04.952Z,3.63
2023-02-04T15:41:32.970Z,3.80
2023-02-04T15:44:00.846Z,3.53
2023-02-04T15:46:28.783Z,4.40
2023-02-04T15:48:56.796Z,3.67
2023-02-04T15:51:24.705Z,3.10
2023-02-04T15:53:53.984Z,4.00
2023-02-04T15:56:22.004Z,3.70
2023-02-04T15:58:49.884Z,3.73
2023-02-04T16:01:17.840Z,4.03
2023-02-04T16:03:47.097Z,4.10
2023-02-04T16:06:15.025Z,3.43
2023-02-04T16:08:42.972Z,3.93
2023-02-04T16:11:12.291Z,4.20
2023-02-04T16:13:40.158Z,3.63
2023-02-04T16:16:08.708Z,3.70
2023-02-04T16:18:36.679Z,4.60
2023-02-04T16:21:04.838Z,3.37
2023-02-04T16:23:32.738Z,3.87
2023-02-04T16:26:00.590Z,3.57
2023-02-04T16:28:29.941Z,3.70
2023-02-04T16:30:58.205Z,3.70
2023-02-04T16:33:27.907Z,2.83
2023-02-04T16:36:01.407Z,3.73
2023-02-04T16:38:30.433Z,3.37
2023-02-04T16:40:59.054Z,3.30
2023-02-04T16:43:27.242Z,3.70
2023-02-04T16:45:56.498Z,3.97
2023-02-04T16:48:24.391Z,3.60
2023-02-04T16:50:53.371Z,3.27
2023-02-04T16:53:21.428Z,3.07
2023-02-04T16:55:49.326Z,3.30
2023-02-04T16:58:18.046Z,3.53
2023-02-04T17:00:46.033Z,3.20
2023-02-04T17:03:15.897Z,4.13
2023-02-04T17:05:44.157Z,3.80
2023-02-04T17:08:13.664Z,3.50
2023-02-04T17:10:59.076Z,3.20
2023-02-04T17:13:27.004Z,3.90
2023-02-04T17:16:00.427Z,3.17
2023-02-04T17:18:31.481Z,3.50
2023-02-04T17:21:00.775Z,3.43
2023-02-04T17:23:29.319Z,3.40
2023-02-04T17:25:57.171Z,3.20
2023-02-04T17:28:26.112Z,3.53
2023-02-04T17:30:54.137Z,3.27
2023-02-04T17:33:22.361Z,3.37
2023-02-04T17:35:51.623Z,3.40
2023-02-04T17:38:19.459Z,3.70
2023-02-04T17:40:47.677Z,3.30
2023-02-04T17:43:15.556Z,3.77
2023-02-04T17:45:43.741Z,3.80
2023-02-04T17:48:11.652Z,3.60
2023-02-04T17:50:40.162Z,4.20
2023-02-04T17:53:10.868Z,3.57
2023-02-04T17:55:39.893Z,3.43
2023-02-04T17:58:14.810Z,3.43
2023-02-04T18:00:44.435Z,3.97
2023-02-04T18:03:14.569Z,3.97
2023-02-04T18:05:45.874Z,3.73
2023-02-04T18:08:17.518Z,3.97
2023-02-04T18:10:47.138Z,3.67
2023-02-04T18:13:17.300Z,4.00
2023-02-04T18:15:48.182Z,3.87
2023-02-04T18:18:24.709Z,3.90
2023-02-04T18:21:00.893Z,3.33
2023-02-04T18:23:33.596Z,3.80
2023-02-04T18:26:08.486Z,4.30
2023-02-04T18:28:36.696Z,3.80
2023-02-04T18:31:18.296Z,4.23
2023-02-04T18:33:46.303Z,3.63
2023-02-04T18:36:20.217Z,3.97
2023-02-04T18:38:49.580Z,3.67
2023-02-04T18:41:31.414Z,3.10
2023-02-04T18:44:02.741Z,3.27
2023-02-04T18:46:33.880Z,3.77
2023-02-04T18:49:05.343Z,3.63
2023-02-04T18:51:35.990Z,3.20
2023-02-04T18:54:25.576Z,3.77
2023-02-04T18:56:56.350Z,3.50
2023-02-04T18:59:27.495Z,3.90
2023-02-04T19:01:55.350Z,3.27
2023-02-04T19:04:26.528Z,4.30
2023-02-04T19:06:55.520Z,4.90
2023-02-04T19:09:26.848Z,4.93
2023-02-04T19:11:56.325Z,5.10
2023-02-04T19:14:26.613Z,5.00
2023-02-04T19:16:59.030Z,4.77
2023-02-04T19:19:35.945Z,4.80
2023-02-04T19:22:18.699Z,4.97
2023-02-04T19:24:48.754Z,4.43
2023-02-04T19:27:32.466Z,4.97
2023-02-04T19:30:02.958Z,4.43
2023-02-04T19:32:38.945Z,4.70
2023-02-04T19:35:19.148Z,4.77
2023-02-04T19:37:53.028Z,5.13
2023-02-04T19:40:27.902Z,4.30
2023-02-04T19:43:00.136Z,4.37
2023-02-04T19:45:28.085Z,4.50
2023-02-04T19:47:57.570Z,4.37
2023-02-04T19:50:28.535Z,5.90
2023-02-04T19:53:02.635Z,4.10
2023-02-04T19:55:35.154Z,4.57
2023-02-04T19:58:14.635Z,4.27
2023-02-04T20:00:58.911Z,4.73
2023-02-04T20:03:40.322Z,4.10
2023-02-04T20:06:30.082Z,5.33
2023-02-04T20:09:01.040Z,5.17
2023-02-04T20:11:41.514Z,5.03
2023-02-04T20:14:37.967Z,5.03
2023-02-04T20:17:16.089Z,3.90
2023-02-04T20:19:44.012Z,4.30
2023-02-04T20:22:48.580Z,4.10
2023-02-04T20:25:38.862Z,4.13
2023-02-04T20:28:19.783Z,3.83
2023-02-04T20:30:50.125Z,3.57
2023-02-04T20:33:29.224Z,4.30
2023-02-04T20:36:34.247Z,3.77
2023-02-04T20:39:38.209Z,3.83
2023-02-04T20:42:32.904Z,3.40
2023-02-04T20:45:25.314Z,3.83
2023-02-04T20:47:57.153Z,4.00
2023-02-04T20:50:41.038Z,3.53
2023-02-04T20:53:22.836Z,4.20
2023-02-04T20:55:53.419Z,4.00
2023-02-04T20:58:23.408Z,3.90
2023-02-04T21:00:55.623Z,3.70
2023-02-04T21:03:29.866Z,3.70
2023-02-04T21:06:00.257Z,4.10
2023-02-04T21:08:41.792Z,4.23
2023-02-04T21:11:10.080Z,3.90
2023-02-04T21:13:38.919Z,4.27
2023-02-04T21:16:09.646Z,4.27
2023-02-04T21:18:38.903Z,5.00
2023-02-04T21:21:09.307Z,5.27
2023-02-04T21:23:37.721Z,5.07
2023-02-04T21:26:06.424Z,4.83
2023-02-04T21:28:34.747Z,5.30
2023-02-04T21:31:03.010Z,5.70
2023-02-04T21:33:32.471Z,5.37
2023-02-04T21:36:00.497Z,5.30
2023-02-04T21:38:28.431Z,5.47
2023-02-04T21:40:56.409Z,5.47
2023-02-04T21:43:24.234Z,5.63
2023-02-04T21:45:52.230Z,5.73
2023-02-04T21:48:20.402Z,5.47
2023-02-04T21:50:49.658Z,6.27
2023-02-04T21:53:17.539Z,5.37
2023-02-04T21:55:45.529Z,5.43
2023-02-04T21:58:13.527Z,5.67
2023-02-04T22:00:41.496Z,5.60
2023-02-04T22:03:15.419Z,8.80
2023-02-04T22:05:43.775Z,11.40
2023-02-04T22:08:13.425Z,11.00
2023-02-04T22:10:41.357Z,7.90
2023-02-04T22:13:27.223Z,6.80
2023-02-04T22:15:55.212Z,5.90
2023-02-04T22:18:23.208Z,5.33
2023-02-04T22:20:51.156Z,4.87
2023-02-04T22:23:20.378Z,5.03
2023-02-04T22:25:48.300Z,4.87
2023-02-04T22:28:16.276Z,4.73
2023-02-04T22:30:44.360Z,5.27
2023-02-04T22:33:13.953Z,5.30
2023-02-04T22:35:42.100Z,5.50
2023-02-04T22:38:10.193Z,5.77
2023-02-04T22:40:39.482Z,6.07
2023-02-04T22:43:07.374Z,5.73
2023-02-04T22:45:35.479Z,6.10
2023-02-04T22:48:03.622Z,6.20
2023-02-04T22:50:31.544Z,5.63
2023-02-04T22:52:59.589Z,6.13
2023-02-04T22:55:27.461Z,6.30
2023-02-04T22:57:56.687Z,6.67
2023-02-04T23:00:24.772Z,5.73
2023-02-04T23:02:52.727Z,6.50
2023-02-04T23:05:20.658Z,6.80
2023-02-04T23:07:48.636Z,7.53
2023-02-04T23:10:16.728Z,7.70
2023-02-04T23:12:44.571Z,7.80
2023-02-04T23:15:14.033Z,7.60
2023-02-04T23:17:41.991Z,7.37
2023-02-04T23:20:10.792Z,8.17
2023-02-04T23:22:38.958Z,9.43
2023-02-04T23:25:07.516Z,8.67
2023-02-04T23:27:35.484Z,8.43
2023-02-04T23:30:04.649Z,9.27
2023-02-04T23:32:33.980Z,8.80
2023-02-04T23:35:01.848Z,8.70
2023-02-04T23:37:29.698Z,9.80
2023-02-04T23:39:57.525Z,9.60
2023-02-04T23:42:25.558Z,10.47
2023-02-04T23:44:53.678Z,11.13
2023-02-04T23:47:21.560Z,11.40
2023-02-04T23:49:51.020Z,11.57
2023-02-04T23:52:19.081Z,11.17
2023-02-04T23:54:47.016Z,11.47
2023-02-04T23:57:14.926Z,11.70
2023-02-04T23:59:42.930Z,12.60
